createdAt,value
2019-04-21T00:00:37.425Z,6.60
2019-04-21T00:01:16.514Z,6.60
2019-04-21T00:02:18.635Z,6.60
2019-04-21T00:02:53.775Z,6.60
2019-04-21T00:03:38.349Z,6.60
2019-04-21T00:04:27.306Z,6.50
2019-04-21T00:05:06.058Z,6.50
2019-04-21T00:05:53.352Z,6.50
2019-04-21T00:06:32.428Z,6.50
2019-04-21T00:07:10.137Z,6.40
2019-04-21T00:07:54.312Z,6.40
2019-04-21T00:09:12.872Z,6.40
2019-04-21T00:10:36.367Z,6.40
2019-04-21T00:11:09.377Z,6.40
2019-04-21T00:11:49.750Z,6.40
2019-04-21T00:12:25.354Z,6.40
2019-04-21T00:13:04.925Z,6.40
2019-04-21T00:13:42.735Z,6.40
2019-04-21T00:14:22.144Z,6.40
2019-04-21T00:15:00.687Z,6.30
2019-04-21T00:15:37.873Z,6.30
2019-04-21T00:16:10.853Z,6.30
2019-04-21T00:16:52.928Z,6.30
2019-04-21T00:17:27.035Z,6.30
2019-04-21T00:18:16.114Z,6.30
2019-04-21T00:19:10.280Z,6.30
2019-04-21T00:19:47.645Z,6.30
2019-04-21T00:20:35.286Z,6.30
2019-04-21T00:21:14.897Z,6.30
2019-04-21T00:21:53.578Z,6.30
2019-04-21T00:22:38.018Z,6.20
2019-04-21T00:23:22.548Z,6.30
2019-04-21T00:24:01.658Z,6.30
2019-04-21T00:24:41.362Z,6.20
2019-04-21T00:25:18.178Z,6.20
2019-04-21T00:25:56.136Z,6.20
2019-04-21T00:26:42.549Z,6.20
2019-04-21T00:27:23.010Z,6.10
2019-04-21T00:27:58.872Z,6.20
2019-04-21T00:28:42.044Z,6.10
2019-04-21T00:29:27.466Z,6.10
2019-04-21T00:29:58.229Z,6.10
2019-04-21T00:30:43.138Z,6.00
2019-04-21T00:31:09.853Z,6.00
2019-04-21T00:31:52.669Z,6.00
2019-04-21T00:32:28.185Z,6.00
2019-04-21T00:33:05.258Z,5.90
2019-04-21T00:33:39.482Z,5.90
2019-04-21T00:34:17.712Z,5.90
2019-04-21T00:35:02.515Z,5.90
2019-04-21T00:35:40.402Z,5.90
2019-04-21T00:36:21.950Z,5.90
2019-04-21T00:37:03.139Z,5.90
2019-04-21T00:37:53.475Z,5.80
2019-04-21T00:38:32.687Z,5.80
2019-04-21T00:39:21.988Z,5.80
2019-04-21T00:40:34.946Z,5.80
2019-04-21T00:41:16.096Z,5.80
2019-04-21T00:41:53.763Z,5.80
2019-04-21T00:42:30.249Z,5.80
2019-04-21T00:43:11.782Z,5.70
2019-04-21T00:43:47.669Z,5.70
2019-04-21T00:44:21.490Z,5.70
2019-04-21T00:45:04.920Z,5.80
2019-04-21T00:45:42.242Z,5.80
2019-04-21T00:46:22.009Z,5.70
2019-04-21T00:47:02.999Z,5.70
2019-04-21T00:47:46.272Z,5.70
2019-04-21T00:48:31.822Z,5.70
2019-04-21T00:49:06.134Z,5.70
2019-04-21T00:49:55.396Z,5.70
2019-04-21T00:50:38.028Z,5.70
2019-04-21T00:51:33.368Z,5.70
2019-04-21T00:52:03.843Z,5.70
2019-04-21T00:52:52.086Z,5.70
2019-04-21T00:53:39.991Z,5.70
2019-04-21T00:54:16.927Z,5.70
2019-04-21T00:55:06.613Z,5.60
2019-04-21T00:55:44.397Z,5.70
2019-04-21T00:56:25.759Z,5.70
2019-04-21T00:57:08.568Z,5.70
2019-04-21T00:57:38.831Z,5.60
2019-04-21T00:58:27.087Z,5.70
2019-04-21T00:59:03.856Z,5.60
2019-04-21T00:59:40.296Z,5.60
2019-04-21T01:00:20.224Z,5.60
2019-04-21T01:00:51.217Z,5.60
2019-04-21T01:01:31.408Z,5.60
2019-04-21T01:02:09.929Z,5.60
2019-04-21T01:02:57.637Z,5.60
2019-04-21T01:03:32.300Z,5.60
2019-04-21T01:04:11.312Z,5.50
2019-04-21T01:04:59.804Z,5.50
2019-04-21T01:05:38.677Z,5.50
2019-04-21T01:06:16.458Z,5.50
2019-04-21T01:06:55.628Z,5.50
2019-04-21T01:07:31.468Z,5.50
2019-04-21T01:08:17.656Z,5.50
2019-04-21T01:08:51.785Z,5.50
2019-04-21T01:09:27.920Z,5.50
2019-04-21T01:10:06.282Z,5.40
2019-04-21T01:10:43.583Z,5.50
2019-04-21T01:11:36.705Z,5.40
2019-04-21T01:12:08.403Z,5.40
2019-04-21T01:12:49.036Z,5.40
2019-04-21T01:14:07.025Z,5.40
2019-04-21T01:14:53.943Z,5.40
2019-04-21T01:15:35.230Z,5.40
2019-04-21T01:16:11.667Z,5.40
2019-04-21T01:16:48.486Z,5.40
2019-04-21T01:17:21.693Z,5.30
2019-04-21T01:18:07.712Z,5.30
2019-04-21T01:18:45.968Z,5.30
2019-04-21T01:19:21.139Z,5.30
2019-04-21T01:19:57.209Z,5.30
2019-04-21T01:20:22.205Z,5.30
2019-04-21T01:21:00.135Z,5.30
2019-04-21T01:21:37.897Z,5.30
2019-04-21T01:22:14.680Z,5.30
2019-04-21T01:22:53.722Z,5.30
2019-04-21T01:23:31.805Z,5.30
2019-04-21T01:24:16.975Z,5.30
2019-04-21T01:24:57.784Z,5.20
2019-04-21T01:25:35.282Z,5.20
2019-04-21T01:26:25.307Z,5.20
2019-04-21T01:26:59.597Z,5.20
2019-04-21T01:27:52.222Z,5.20
2019-04-21T01:28:27.020Z,5.20
2019-04-21T01:29:01.605Z,5.10
2019-04-21T01:29:45.938Z,5.20
2019-04-21T01:30:29.708Z,5.10
2019-04-21T01:31:05.952Z,5.20
2019-04-21T01:31:42.632Z,5.10
2019-04-21T01:32:29.250Z,5.10
2019-04-21T01:33:08.265Z,5.10
2019-04-21T01:33:50.772Z,5.10
2019-04-21T01:34:29.104Z,5.10
2019-04-21T01:35:05.261Z,5.10
2019-04-21T01:35:44.217Z,5.10
2019-04-21T01:36:18.128Z,5.10
2019-04-21T01:36:59.901Z,5.10
2019-04-21T01:37:52.423Z,5.10
2019-04-21T01:38:31.621Z,5.10
2019-04-21T01:39:08.380Z,5.10
2019-04-21T01:39:48.513Z,5.10
2019-04-21T01:40:25.688Z,5.10
2019-04-21T01:41:19.851Z,5.10
2019-04-21T01:41:43.098Z,5.10
2019-04-21T01:42:18.899Z,5.10
2019-04-21T01:43:00.414Z,5.00
2019-04-21T01:43:33.457Z,5.00
2019-04-21T01:44:22.696Z,5.00
2019-04-21T01:44:59.091Z,5.00
2019-04-21T01:45:41.660Z,5.00
2019-04-21T01:46:15.155Z,5.00
2019-04-21T01:46:52.002Z,5.00
2019-04-21T01:47:31.361Z,5.00
2019-04-21T01:48:13.685Z,4.90
2019-04-21T01:48:49.342Z,4.90
2019-04-21T01:49:28.619Z,5.00
2019-04-21T01:50:05.730Z,4.90
2019-04-21T01:50:51.093Z,4.90
2019-04-21T01:51:28.075Z,5.00
2019-04-21T01:52:56.052Z,5.00
2019-04-21T01:53:43.536Z,5.00
2019-04-21T01:54:43.544Z,5.00
2019-04-21T01:55:30.822Z,5.00
2019-04-21T01:56:40.503Z,5.00
2019-04-21T01:57:27.938Z,5.00
2019-04-21T01:58:01.414Z,5.00
2019-04-21T01:58:44.290Z,5.00
2019-04-21T01:59:27.090Z,5.00
2019-04-21T02:00:00.968Z,5.00
2019-04-21T02:00:52.582Z,5.10
2019-04-21T02:01:34.198Z,5.00
2019-04-21T02:02:10.674Z,5.00
2019-04-21T02:02:59.745Z,5.00
2019-04-21T02:03:54.476Z,5.00
2019-04-21T02:04:22.747Z,5.00
2019-04-21T02:04:58.036Z,5.00
2019-04-21T02:05:37.728Z,5.00
2019-04-21T02:06:18.508Z,5.00
2019-04-21T02:06:50.226Z,5.00
2019-04-21T02:07:40.632Z,5.00
2019-04-21T02:08:15.462Z,5.00
2019-04-21T02:08:56.087Z,5.00
2019-04-21T02:09:38.022Z,5.00
2019-04-21T02:10:22.540Z,5.00
2019-04-21T02:11:17.662Z,5.00
2019-04-21T02:12:05.756Z,5.00
2019-04-21T02:12:40.961Z,5.00
2019-04-21T02:13:13.138Z,5.00
2019-04-21T02:14:04.129Z,5.00
2019-04-21T02:14:40.925Z,5.00
2019-04-21T02:15:21.897Z,5.00
2019-04-21T02:16:02.066Z,5.00
2019-04-21T02:16:35.981Z,5.00
2019-04-21T02:17:14.823Z,5.00
2019-04-21T02:17:54.096Z,5.00
2019-04-21T02:18:33.472Z,5.00
2019-04-21T02:19:08.378Z,5.00
2019-04-21T02:19:49.130Z,5.00
2019-04-21T02:20:25.706Z,5.00
2019-04-21T02:21:00.147Z,5.00
2019-04-21T02:21:49.187Z,5.00
2019-04-21T02:22:46.458Z,5.00
2019-04-21T02:23:31.549Z,4.90
2019-04-21T02:23:56.080Z,5.00
2019-04-21T02:24:42.714Z,4.90
2019-04-21T02:25:18.512Z,4.90
2019-04-21T02:25:50.903Z,4.90
2019-04-21T02:26:36.225Z,4.90
2019-04-21T02:27:17.378Z,4.90
2019-04-21T02:27:51.558Z,4.90
2019-04-21T02:28:36.901Z,4.90
2019-04-21T02:29:15.425Z,4.90
2019-04-21T02:29:48.736Z,4.80
2019-04-21T02:30:45.478Z,4.80
2019-04-21T02:32:10.576Z,4.80
2019-04-21T02:32:53.843Z,4.80
2019-04-21T02:33:30.073Z,4.80
2019-04-21T02:34:42.987Z,4.70
2019-04-21T02:35:24.637Z,4.70
2019-04-21T02:36:02.781Z,4.70
2019-04-21T02:38:03.818Z,4.70
2019-04-21T02:38:48.679Z,4.70
2019-04-21T02:39:29.601Z,4.70
2019-04-21T02:40:05.061Z,4.70
2019-04-21T02:40:40.488Z,4.70
2019-04-21T02:41:35.131Z,4.70
2019-04-21T02:41:57.857Z,4.70
2019-04-21T02:42:37.897Z,4.70
2019-04-21T02:44:40.835Z,4.70
2019-04-21T02:46:13.013Z,4.70
2019-04-21T02:46:50.382Z,4.70
2019-04-21T02:47:36.706Z,4.70
2019-04-21T02:49:34.582Z,4.60
2019-04-21T02:50:10.390Z,4.60
2019-04-21T02:51:38.676Z,4.60
2019-04-21T02:52:11.555Z,4.60
2019-04-21T02:53:30.479Z,4.60
2019-04-21T02:55:26.395Z,4.70
2019-04-21T02:56:00.703Z,4.60
2019-04-21T02:56:43.891Z,4.60
2019-04-21T03:00:00.440Z,4.60
2019-04-21T03:01:56.359Z,4.60
2019-04-21T03:02:54.691Z,4.60
2019-04-21T03:03:52.950Z,4.60
2019-04-21T03:04:49.525Z,4.60
2019-04-21T03:05:42.884Z,4.60
2019-04-21T03:06:16.914Z,4.60
2019-04-21T03:07:13.298Z,4.60
2019-04-21T03:07:55.397Z,4.60
2019-04-21T03:09:09.208Z,4.60
2019-04-21T03:09:57.943Z,4.60
2019-04-21T03:12:01.514Z,4.60
2019-04-21T03:12:22.091Z,4.60
2019-04-21T03:13:17.159Z,4.60
2019-04-21T03:13:47.278Z,4.60
2019-04-21T03:15:21.945Z,4.60
2019-04-21T03:15:49.392Z,4.60
2019-04-21T03:16:25.915Z,4.60
2019-04-21T03:17:10.096Z,4.60
2019-04-21T03:17:55.365Z,4.50
2019-04-21T03:18:24.237Z,4.50
2019-04-21T03:19:55.671Z,4.50
2019-04-21T03:20:26.783Z,4.50
2019-04-21T03:21:16.868Z,4.50
2019-04-21T03:21:45.554Z,4.50
2019-04-21T03:22:20.971Z,4.50
2019-04-21T03:23:15.398Z,4.50
2019-04-21T03:23:52.104Z,4.50
2019-04-21T03:24:29.405Z,4.40
2019-04-21T03:25:59.056Z,4.40
2019-04-21T03:27:13.616Z,4.40
2019-04-21T03:27:56.895Z,4.40
2019-04-21T03:28:28.336Z,4.40
2019-04-21T03:28:54.559Z,4.40
2019-04-21T03:29:37.019Z,4.40
2019-04-21T03:30:29.295Z,4.40
2019-04-21T03:32:55.347Z,4.40
2019-04-21T03:33:23.881Z,4.30
2019-04-21T03:37:33.426Z,4.30
2019-04-21T03:38:17.249Z,4.30
2019-04-21T03:38:47.318Z,4.30
2019-04-21T03:39:30.938Z,4.20
2019-04-21T03:40:07.505Z,4.20
2019-04-21T03:41:04.228Z,4.20
2019-04-21T03:41:31.775Z,4.20
2019-04-21T03:43:28.176Z,4.20
2019-04-21T03:44:06.603Z,4.20
2019-04-21T03:44:46.242Z,4.20
2019-04-21T03:45:31.102Z,4.20
2019-04-21T03:45:58.811Z,4.20
2019-04-21T03:48:05.149Z,4.20
2019-04-21T03:48:48.525Z,4.20
2019-04-21T03:49:27.919Z,4.20
2019-04-21T03:50:06.758Z,4.20
2019-04-21T03:51:21.041Z,4.20
2019-04-21T03:52:03.670Z,4.20
2019-04-21T03:52:48.220Z,4.20
2019-04-21T03:53:22.680Z,4.30
2019-04-21T03:53:55.870Z,4.20
2019-04-21T03:54:41.766Z,4.20
2019-04-21T03:57:06.501Z,4.30
2019-04-21T03:57:37.406Z,4.30
2019-04-21T03:58:16.911Z,4.30
2019-04-21T03:58:55.825Z,4.30
2019-04-21T03:59:16.252Z,4.30
2019-04-21T04:00:21.958Z,4.30
2019-04-21T04:03:13.415Z,4.30
2019-04-21T04:04:11.580Z,4.30
2019-04-21T04:04:55.133Z,4.30
2019-04-21T04:06:55.601Z,4.30
2019-04-21T04:07:42.484Z,4.30
2019-04-21T04:09:19.420Z,4.30
2019-04-21T04:10:02.927Z,4.30
2019-04-21T04:10:46.364Z,4.30
2019-04-21T04:11:21.076Z,4.30
2019-04-21T04:12:05.193Z,4.30
2019-04-21T04:12:34.729Z,4.30
2019-04-21T04:13:19.348Z,4.30
2019-04-21T04:14:41.800Z,4.30
2019-04-21T04:15:26.662Z,4.30
2019-04-21T04:16:50.136Z,4.30
2019-04-21T04:17:20.349Z,4.30
2019-04-21T04:17:57.035Z,4.30
2019-04-21T04:19:18.625Z,4.30
2019-04-21T04:20:37.066Z,4.30
2019-04-21T04:21:20.652Z,4.40
2019-04-21T04:21:56.402Z,4.40
2019-04-21T04:22:58.462Z,4.40
2019-04-21T04:23:08.048Z,4.40
2019-04-21T04:24:34.007Z,4.40
2019-04-21T04:25:15.443Z,4.40
2019-04-21T04:28:03.423Z,4.70
2019-04-21T04:28:28.158Z,4.80
2019-04-21T04:29:39.785Z,5.10
2019-04-21T04:30:01.109Z,4.90
2019-04-21T04:30:31.137Z,5.20
2019-04-21T04:31:05.072Z,5.40
2019-04-21T04:31:47.535Z,5.60
2019-04-21T04:32:23.500Z,5.70
2019-04-21T04:32:57.212Z,5.90
2019-04-21T04:33:50.229Z,6.00
2019-04-21T04:34:24.781Z,6.20
2019-04-21T04:36:05.308Z,6.30
2019-04-21T04:36:23.903Z,6.60
2019-04-21T04:37:36.653Z,6.80
2019-04-21T04:38:24.102Z,6.90
2019-04-21T04:39:43.642Z,7.10
2019-04-21T04:41:28.882Z,7.30
2019-04-21T04:42:27.069Z,7.40
2019-04-21T04:43:30.399Z,7.60
2019-04-21T04:44:22.893Z,7.70
2019-04-21T04:44:59.704Z,7.80
2019-04-21T04:45:58.853Z,8.00
2019-04-21T04:46:44.257Z,8.10
2019-04-21T04:48:03.523Z,8.30
2019-04-21T04:49:32.130Z,8.40
2019-04-21T04:50:10.280Z,8.50
2019-04-21T04:50:49.717Z,8.50
2019-04-21T04:51:27.097Z,8.60
2019-04-21T04:52:36.244Z,8.80
2019-04-21T04:53:42.757Z,8.90
2019-04-21T04:54:47.499Z,9.00
2019-04-21T04:55:19.586Z,9.10
2019-04-21T04:56:01.795Z,9.10
2019-04-21T04:56:38.777Z,9.20
2019-04-21T04:57:33.811Z,9.20
2019-04-21T05:00:00.496Z,9.40
2019-04-21T05:00:43.427Z,9.50
2019-04-21T05:01:21.497Z,9.50
2019-04-21T05:02:00.324Z,9.60
2019-04-21T05:02:33.270Z,9.60
2019-04-21T05:03:03.117Z,9.70
2019-04-21T05:03:49.455Z,9.70
2019-04-21T05:04:30.426Z,9.80
2019-04-21T05:05:15.712Z,9.80
2019-04-21T05:06:37.542Z,9.90
2019-04-21T05:07:00.198Z,9.90
2019-04-21T05:07:46.634Z,10.00
2019-04-21T05:08:21.854Z,10.00
2019-04-21T05:10:17.895Z,10.10
2019-04-21T05:12:25.156Z,10.20
2019-04-21T05:13:35.556Z,10.20
2019-04-21T05:14:18.346Z,10.20
2019-04-21T05:14:53.336Z,10.30
2019-04-21T05:15:42.213Z,10.30
2019-04-21T05:16:18.953Z,10.30
2019-04-21T05:17:33.742Z,10.30
2019-04-21T05:18:52.887Z,10.30
2019-04-21T05:20:08.782Z,10.40
2019-04-21T05:20:41.903Z,10.40
2019-04-21T05:21:30.295Z,10.40
2019-04-21T05:21:54.698Z,10.50
2019-04-21T05:22:35.273Z,10.50
2019-04-21T05:23:16.148Z,10.50
2019-04-21T05:23:54.017Z,10.50
2019-04-21T05:24:44.079Z,10.60
2019-04-21T05:25:23.690Z,10.60
2019-04-21T05:25:58.415Z,10.60
2019-04-21T05:26:46.243Z,10.60
2019-04-21T05:27:46.987Z,10.60
2019-04-21T05:28:24.795Z,10.60
2019-04-21T05:29:04.289Z,10.70
2019-04-21T05:30:00.423Z,10.70
2019-04-21T05:30:45.459Z,10.70
2019-04-21T05:31:44.363Z,10.70
2019-04-21T05:32:38.276Z,10.70
2019-04-21T05:33:27.661Z,10.70
2019-04-21T05:34:12.120Z,10.70
2019-04-21T05:34:53.310Z,10.70
2019-04-21T05:35:47.387Z,10.70
2019-04-21T05:36:39.481Z,10.80
2019-04-21T05:37:43.680Z,10.70
2019-04-21T05:38:27.320Z,10.70
2019-04-21T05:39:10.410Z,10.70
2019-04-21T05:39:55.908Z,10.70
2019-04-21T05:40:33.624Z,10.70
2019-04-21T05:41:12.780Z,10.70
2019-04-21T05:41:49.091Z,10.80
2019-04-21T05:42:35.254Z,10.80
2019-04-21T05:43:28.419Z,10.80
2019-04-21T05:44:05.082Z,10.80
2019-04-21T05:44:57.167Z,10.80
2019-04-21T05:45:26.850Z,10.80
2019-04-21T05:46:04.503Z,10.80
2019-04-21T05:47:01.855Z,10.70
2019-04-21T05:47:34.937Z,10.70
2019-04-21T05:48:30.637Z,10.70
2019-04-21T05:49:02.905Z,10.70
2019-04-21T05:49:49.933Z,10.70
2019-04-21T05:50:26.485Z,10.70
2019-04-21T05:51:03.511Z,10.70
2019-04-21T05:52:07.782Z,10.80
2019-04-21T05:52:51.921Z,10.80
2019-04-21T05:53:46.801Z,10.70
2019-04-21T05:54:24.677Z,10.60
2019-04-21T05:54:55.693Z,10.60
2019-04-21T05:55:35.988Z,10.60
2019-04-21T05:56:18.683Z,10.60
2019-04-21T05:56:49.847Z,10.60
2019-04-21T05:57:31.771Z,10.60
2019-04-21T05:58:08.651Z,10.60
2019-04-21T05:58:48.431Z,10.50
2019-04-21T05:59:29.675Z,10.50
2019-04-21T06:00:10.329Z,10.50
2019-04-21T06:01:40.870Z,10.50
2019-04-21T06:03:04.275Z,10.50
2019-04-21T06:03:44.931Z,10.40
2019-04-21T06:04:34.479Z,10.40
2019-04-21T06:05:44.647Z,10.30
2019-04-21T06:06:20.715Z,10.30
2019-04-21T06:07:02.086Z,10.30
2019-04-21T06:07:33.493Z,10.30
2019-04-21T06:08:17.973Z,10.30
2019-04-21T06:08:52.504Z,10.30
2019-04-21T06:09:39.768Z,10.20
2019-04-21T06:10:12.369Z,10.10
2019-04-21T06:10:52.537Z,10.10
2019-04-21T06:11:30.689Z,10.10
2019-04-21T06:12:08.647Z,10.00
2019-04-21T06:12:50.303Z,10.00
2019-04-21T06:13:37.877Z,9.90
2019-04-21T06:14:31.085Z,9.90
2019-04-21T06:15:41.715Z,9.80
2019-04-21T06:16:13.999Z,9.80
2019-04-21T06:16:55.635Z,9.80
2019-04-21T06:17:35.091Z,9.70
2019-04-21T06:18:13.440Z,9.70
2019-04-21T06:19:36.574Z,9.70
2019-04-21T06:20:13.643Z,9.60
2019-04-21T06:20:55.952Z,9.60
2019-04-21T06:21:30.786Z,9.60
2019-04-21T06:22:07.617Z,9.60
2019-04-21T06:22:53.319Z,9.60
2019-04-21T06:23:24.166Z,9.60
2019-04-21T06:24:03.720Z,9.60
2019-04-21T06:25:11.505Z,9.60
2019-04-21T06:27:32.786Z,9.60
2019-04-21T06:28:09.256Z,9.60
2019-04-21T06:28:46.742Z,9.60
2019-04-21T06:29:23.666Z,9.60
2019-04-21T06:30:19.344Z,9.60
2019-04-21T06:30:52.790Z,9.60
2019-04-21T06:31:49.885Z,9.60
2019-04-21T06:32:29.454Z,9.60
2019-04-21T06:32:52.684Z,9.70
2019-04-21T06:33:27.870Z,9.70
2019-04-21T06:34:05.002Z,9.70
2019-04-21T06:35:01.121Z,9.70
2019-04-21T06:35:48.381Z,9.80
2019-04-21T06:36:49.486Z,9.80
2019-04-21T06:38:15.259Z,9.80
2019-04-21T06:39:12.286Z,9.80
2019-04-21T06:39:39.906Z,9.90
2019-04-21T06:40:21.347Z,9.90
2019-04-21T06:41:00.397Z,9.90
2019-04-21T06:41:33.837Z,10.00
2019-04-21T06:42:09.137Z,10.00
2019-04-21T06:43:08.202Z,10.10
2019-04-21T06:43:41.960Z,10.10
2019-04-21T06:44:14.899Z,10.10
2019-04-21T06:45:01.856Z,10.10
2019-04-21T06:45:36.526Z,10.10
2019-04-21T06:46:21.136Z,10.10
2019-04-21T06:46:49.043Z,10.20
2019-04-21T06:48:11.216Z,10.20
2019-04-21T06:48:55.807Z,10.20
2019-04-21T06:49:27.412Z,10.20
2019-04-21T06:50:12.013Z,10.20
2019-04-21T06:50:52.843Z,10.30
2019-04-21T06:51:27.970Z,10.40
2019-04-21T06:52:02.426Z,10.40
2019-04-21T06:53:33.788Z,10.40
2019-04-21T06:54:03.841Z,10.40
2019-04-21T06:54:41.048Z,10.40
2019-04-21T06:55:19.923Z,10.50
2019-04-21T06:56:00.076Z,10.50
2019-04-21T06:56:40.955Z,10.50
2019-04-21T06:57:16.982Z,10.50
2019-04-21T06:57:57.984Z,10.60
2019-04-21T06:58:35.823Z,10.60
2019-04-21T06:59:12.036Z,10.60
2019-04-21T06:59:52.621Z,10.60
2019-04-21T07:00:34.474Z,10.60
2019-04-21T07:01:15.940Z,10.70
2019-04-21T07:02:02.907Z,10.70
2019-04-21T07:03:19.255Z,10.80
2019-04-21T07:04:03.592Z,10.90
2019-04-21T07:04:31.754Z,10.90
2019-04-21T07:05:08.997Z,11.00
2019-04-21T07:05:58.958Z,11.00
2019-04-21T07:06:32.458Z,11.00
2019-04-21T07:07:06.805Z,11.10
2019-04-21T07:07:57.704Z,11.10
2019-04-21T07:09:53.058Z,11.40
2019-04-21T07:10:50.777Z,11.40
2019-04-21T07:11:13.268Z,11.40
2019-04-21T07:11:52.056Z,11.50
2019-04-21T07:12:29.588Z,11.50
2019-04-21T07:13:11.914Z,11.50
2019-04-21T07:13:50.978Z,11.60
2019-04-21T07:15:10.576Z,11.70
2019-04-21T07:15:51.458Z,11.70
2019-04-21T07:17:27.897Z,11.80
2019-04-21T07:18:12.946Z,11.80
2019-04-21T07:18:53.415Z,11.90
2019-04-21T07:20:49.247Z,11.90
2019-04-21T07:21:27.594Z,11.90
2019-04-21T07:22:20.333Z,11.90
2019-04-21T07:22:57.012Z,12.00
2019-04-21T07:23:38.598Z,12.00
2019-04-21T07:24:22.637Z,12.10
2019-04-21T07:24:56.043Z,12.10
2019-04-21T07:25:32.644Z,12.10
2019-04-21T07:26:12.406Z,12.10
2019-04-21T07:28:12.715Z,12.30
2019-04-21T07:28:56.264Z,12.40
2019-04-21T07:29:27.172Z,12.40
2019-04-21T07:30:27.976Z,12.40
2019-04-21T07:30:57.544Z,12.50
2019-04-21T07:31:34.793Z,12.50
2019-04-21T07:32:49.786Z,12.60
2019-04-21T07:33:52.309Z,12.60
2019-04-21T07:34:10.559Z,12.60
2019-04-21T07:34:49.853Z,12.60
2019-04-21T07:35:22.171Z,12.70
2019-04-21T07:36:03.760Z,12.70
2019-04-21T07:37:20.351Z,12.70
2019-04-21T07:37:57.908Z,12.70
2019-04-21T07:38:36.280Z,12.80
2019-04-21T07:39:10.387Z,12.80
2019-04-21T07:39:54.645Z,12.80
2019-04-21T07:40:28.268Z,12.80
2019-04-21T07:41:11.216Z,12.80
2019-04-21T07:41:48.498Z,12.90
2019-04-21T07:42:35.670Z,12.90
2019-04-21T07:43:05.622Z,12.90
2019-04-21T07:43:57.289Z,12.90
2019-04-21T07:44:37.954Z,12.90
2019-04-21T07:45:11.902Z,13.00
2019-04-21T07:45:53.951Z,13.00
2019-04-21T07:46:29.050Z,13.10
2019-04-21T07:47:15.660Z,13.10
2019-04-21T07:48:06.434Z,13.10
2019-04-21T07:48:43.274Z,13.10
2019-04-21T07:49:55.224Z,13.20
2019-04-21T07:50:41.617Z,13.20
2019-04-21T07:51:40.458Z,13.30
2019-04-21T07:52:33.553Z,13.30
2019-04-21T07:53:18.603Z,13.30
2019-04-21T07:53:55.342Z,13.40
2019-04-21T07:54:36.020Z,13.40
2019-04-21T07:55:39.247Z,13.40
2019-04-21T07:56:32.982Z,13.40
2019-04-21T07:57:18.674Z,13.40
2019-04-21T07:58:03.241Z,13.40
2019-04-21T07:58:51.709Z,13.50
2019-04-21T07:59:34.206Z,13.50
2019-04-21T08:00:16.467Z,13.50
2019-04-21T08:00:51.335Z,13.50
2019-04-21T08:01:26.395Z,13.60
2019-04-21T08:02:01.300Z,13.60
2019-04-21T08:03:05.211Z,13.60
2019-04-21T08:03:30.075Z,13.70
2019-04-21T08:03:59.513Z,13.70
2019-04-21T08:04:54.433Z,13.70
2019-04-21T08:05:24.836Z,13.80
2019-04-21T08:06:02.365Z,13.80
2019-04-21T08:06:40.290Z,13.80
2019-04-21T08:07:24.491Z,13.90
2019-04-21T08:07:56.085Z,13.90
2019-04-21T08:08:34.284Z,13.90
2019-04-21T08:09:19.821Z,14.00
2019-04-21T08:09:57.270Z,14.00
2019-04-21T08:10:38.738Z,14.00
2019-04-21T08:11:16.681Z,14.10
2019-04-21T08:11:51.802Z,14.10
2019-04-21T08:12:30.198Z,14.20
2019-04-21T08:13:31.710Z,14.20
2019-04-21T08:13:57.794Z,14.30
2019-04-21T08:14:35.302Z,14.30
2019-04-21T08:15:24.339Z,14.30
2019-04-21T08:15:52.947Z,14.40
2019-04-21T08:16:40.285Z,14.40
2019-04-21T08:17:17.872Z,14.40
2019-04-21T08:17:53.353Z,14.50
2019-04-21T08:19:13.155Z,14.50
2019-04-21T08:19:48.690Z,14.50
2019-04-21T08:20:29.128Z,14.60
2019-04-21T08:21:11.034Z,14.70
2019-04-21T08:21:59.655Z,14.70
2019-04-21T08:22:32.077Z,14.70
2019-04-21T08:23:13.519Z,14.70
2019-04-21T08:23:47.908Z,14.70
2019-04-21T08:24:35.047Z,14.70
2019-04-21T08:25:09.234Z,14.80
2019-04-21T08:25:58.953Z,14.80
2019-04-21T08:26:39.904Z,14.80
2019-04-21T08:27:10.861Z,14.80
2019-04-21T08:27:53.996Z,14.80
2019-04-21T08:28:35.097Z,14.90
2019-04-21T08:29:19.131Z,14.90
2019-04-21T08:29:51.623Z,14.90
2019-04-21T08:30:32.234Z,14.90
2019-04-21T08:31:10.277Z,14.90
2019-04-21T08:32:40.940Z,14.90
2019-04-21T08:33:30.584Z,15.00
2019-04-21T08:33:47.041Z,15.10
2019-04-21T08:34:28.374Z,15.20
2019-04-21T08:35:16.038Z,15.20
2019-04-21T08:36:24.719Z,15.20
2019-04-21T08:36:57.533Z,15.20
2019-04-21T08:37:38.075Z,15.20
2019-04-21T08:38:20.900Z,15.30
2019-04-21T08:38:59.797Z,15.20
2019-04-21T08:39:37.337Z,15.30
2019-04-21T08:40:17.965Z,15.30
2019-04-21T08:40:59.041Z,15.30
2019-04-21T08:41:31.597Z,15.30
2019-04-21T08:42:10.959Z,15.30
2019-04-21T08:42:50.811Z,15.40
2019-04-21T08:43:42.798Z,15.50
2019-04-21T08:44:10.603Z,15.50
2019-04-21T08:44:58.233Z,15.50
2019-04-21T08:46:05.671Z,15.60
2019-04-21T08:46:55.091Z,15.60
2019-04-21T08:47:38.422Z,15.60
2019-04-21T08:48:29.317Z,15.60
2019-04-21T08:49:08.033Z,15.60
2019-04-21T08:49:52.483Z,15.60
2019-04-21T08:50:27.904Z,15.70
2019-04-21T08:51:22.433Z,15.70
2019-04-21T08:51:53.925Z,15.80
2019-04-21T08:52:36.836Z,15.80
2019-04-21T08:53:07.821Z,15.80
2019-04-21T08:54:26.414Z,15.90
2019-04-21T08:55:11.184Z,15.90
2019-04-21T08:56:41.265Z,15.90
2019-04-21T08:57:35.972Z,15.90
2019-04-21T08:59:19.215Z,16.00
2019-04-21T09:00:12.537Z,16.00
2019-04-21T09:01:02.379Z,16.00
2019-04-21T09:01:42.923Z,16.00
2019-04-21T09:02:34.090Z,16.10
2019-04-21T09:03:14.228Z,16.10
2019-04-21T09:03:59.789Z,16.10
2019-04-21T09:04:46.328Z,16.10
2019-04-21T09:05:23.493Z,16.10
2019-04-21T09:06:07.563Z,16.10
2019-04-21T09:07:32.103Z,16.20
2019-04-21T09:08:06.658Z,16.20
2019-04-21T09:08:39.626Z,16.20
2019-04-21T09:09:24.477Z,16.20
2019-04-21T09:10:09.432Z,16.30
2019-04-21T09:10:47.035Z,16.30
2019-04-21T09:11:24.031Z,16.40
2019-04-21T09:12:07.271Z,16.40
2019-04-21T09:13:02.926Z,16.40
2019-04-21T09:13:41.170Z,16.40
2019-04-21T09:14:18.889Z,16.40
2019-04-21T09:15:01.326Z,16.40
2019-04-21T09:15:35.090Z,16.50
2019-04-21T09:16:17.140Z,16.50
2019-04-21T09:16:56.341Z,16.50
2019-04-21T09:17:28.526Z,16.50
2019-04-21T09:18:17.516Z,16.40
2019-04-21T09:18:52.911Z,16.50
2019-04-21T09:19:47.695Z,16.40
2019-04-21T09:20:22.719Z,16.40
2019-04-21T09:20:59.894Z,16.40
2019-04-21T09:21:39.199Z,16.40
2019-04-21T09:22:13.255Z,16.40
2019-04-21T09:22:55.722Z,16.40
2019-04-21T09:23:35.097Z,16.40
2019-04-21T09:24:14.821Z,16.40
2019-04-21T09:24:51.917Z,16.50
2019-04-21T09:25:53.068Z,16.50
2019-04-21T09:26:28.275Z,16.60
2019-04-21T09:27:10.209Z,16.70
2019-04-21T09:27:47.015Z,16.70
2019-04-21T09:28:25.543Z,16.70
2019-04-21T09:29:00.381Z,16.70
2019-04-21T09:29:39.246Z,16.70
2019-04-21T09:30:10.791Z,16.70
2019-04-21T09:30:53.322Z,16.80
2019-04-21T09:31:37.443Z,16.80
2019-04-21T09:32:18.239Z,16.80
2019-04-21T09:32:54.842Z,16.80
2019-04-21T09:33:37.680Z,16.80
2019-04-21T09:34:16.372Z,16.80
2019-04-21T09:34:52.407Z,16.80
2019-04-21T09:35:29.173Z,16.90
2019-04-21T09:36:11.413Z,16.90
2019-04-21T09:36:51.182Z,16.90
2019-04-21T09:37:44.394Z,16.90
2019-04-21T09:38:26.451Z,17.00
2019-04-21T09:39:03.814Z,17.00
2019-04-21T09:39:41.865Z,17.00
2019-04-21T09:40:16.863Z,17.00
2019-04-21T09:40:55.866Z,17.00
2019-04-21T09:41:38.201Z,17.00
2019-04-21T09:42:16.774Z,16.90
2019-04-21T09:42:59.483Z,17.00
2019-04-21T09:43:41.219Z,17.00
2019-04-21T09:44:18.472Z,17.00
2019-04-21T09:44:55.682Z,17.00
2019-04-21T09:45:30.744Z,17.00
2019-04-21T09:46:08.729Z,17.00
2019-04-21T09:46:50.502Z,17.00
2019-04-21T09:47:36.526Z,17.00
2019-04-21T09:48:11.466Z,17.00
2019-04-21T09:48:52.838Z,17.00
2019-04-21T09:49:27.175Z,17.10
2019-04-21T09:50:04.751Z,17.10
2019-04-21T09:50:43.489Z,17.20
2019-04-21T09:51:20.687Z,17.20
2019-04-21T09:51:59.951Z,17.20
2019-04-21T09:52:45.118Z,17.20
2019-04-21T09:53:28.500Z,17.20
2019-04-21T09:54:04.416Z,17.20
2019-04-21T09:54:46.065Z,17.20
2019-04-21T09:55:22.780Z,17.20
2019-04-21T09:56:01.734Z,17.20
2019-04-21T09:56:45.519Z,17.20
2019-04-21T09:57:29.987Z,17.20
2019-04-21T09:58:06.954Z,17.30
2019-04-21T09:58:40.271Z,17.20
2019-04-21T09:59:20.625Z,17.20
2019-04-21T10:00:02.453Z,17.20
2019-04-21T10:00:46.357Z,17.20
2019-04-21T10:01:24.152Z,17.20
2019-04-21T10:02:06.502Z,17.20
2019-04-21T10:02:38.520Z,17.30
2019-04-21T10:03:13.922Z,17.40
2019-04-21T10:04:00.040Z,17.40
2019-04-21T10:04:35.653Z,17.40
2019-04-21T10:05:14.563Z,17.40
2019-04-21T10:05:54.344Z,17.50
2019-04-21T10:06:33.020Z,17.50
2019-04-21T10:07:23.382Z,17.50
2019-04-21T10:07:50.661Z,17.50
2019-04-21T10:08:29.537Z,17.50
2019-04-21T10:09:13.878Z,17.50
2019-04-21T10:09:48.199Z,17.50